createdAt,value
2022-12-12T00:02:45.215Z,63.45
2022-12-12T00:05:32.502Z,64.53
2022-12-12T00:08:19.818Z,63.68
2022-12-12T00:11:08.212Z,58.80
2022-12-12T00:13:56.637Z,64.85
2022-12-12T00:16:43.843Z,61.18
2022-12-12T00:19:31.363Z,60.38
2022-12-12T00:22:18.856Z,64.82
2022-12-12T00:25:06.798Z,61.63
2022-12-12T00:27:53.906Z,60.28
2022-12-12T00:30:41.180Z,62.67
2022-12-12T00:33:28.809Z,64.35
2022-12-12T00:36:17.934Z,64.42
2022-12-12T00:39:05.233Z,61.50
2022-12-12T00:41:54.540Z,64.00
2022-12-12T00:44:42.096Z,64.32
2022-12-12T00:47:29.691Z,64.25
2022-12-12T00:50:17.034Z,64.85
2022-12-12T00:53:04.702Z,67.55
2022-12-12T00:55:57.739Z,63.83
2022-12-12T00:58:45.440Z,61.75
2022-12-12T01:01:34.280Z,63.17
2022-12-12T01:04:21.430Z,66.92
2022-12-12T01:07:09.161Z,65.15
2022-12-12T01:09:56.714Z,67.60
2022-12-12T01:12:44.124Z,65.05
2022-12-12T01:15:31.791Z,64.80
2022-12-12T01:18:19.593Z,59.88
2022-12-12T01:21:10.075Z,65.95
2022-12-12T01:23:57.318Z,63.73
2022-12-12T01:26:44.657Z,62.25
2022-12-12T01:29:33.573Z,64.67
2022-12-12T01:32:20.776Z,70.92
2022-12-12T01:35:08.394Z,64.00
2022-12-12T01:37:55.645Z,64.20
2022-12-12T01:40:42.907Z,63.85
2022-12-12T01:43:30.986Z,56.55
2022-12-12T01:46:33.336Z,64.05
2022-12-12T01:49:24.966Z,66.02
2022-12-12T01:52:15.997Z,59.35
2022-12-12T01:55:06.320Z,62.00
2022-12-12T01:57:55.421Z,64.58
2022-12-12T02:00:43.868Z,59.35
2022-12-12T02:03:30.982Z,61.00
2022-12-12T02:06:21.384Z,58.35
2022-12-12T02:09:12.494Z,58.95
2022-12-12T02:11:59.787Z,59.98
2022-12-12T02:14:50.327Z,59.40
2022-12-12T02:18:01.014Z,62.48
2022-12-12T02:21:01.294Z,57.80
2022-12-12T02:24:08.185Z,61.88
2022-12-12T02:27:31.437Z,59.77
2022-12-12T02:30:22.244Z,61.58
2022-12-12T02:33:12.561Z,60.60
2022-12-12T02:36:05.338Z,63.13
2022-12-12T02:38:55.697Z,58.58
2022-12-12T02:41:46.135Z,70.67
2022-12-12T02:44:51.489Z,54.73
2022-12-12T02:47:41.602Z,60.23
2022-12-12T02:50:31.021Z,62.93
2022-12-12T02:53:20.191Z,55.12
2022-12-12T02:56:10.384Z,54.55
2022-12-12T02:58:58.294Z,62.33
2022-12-12T03:01:48.905Z,65.15
2022-12-12T03:05:14.070Z,60.28
2022-12-12T03:08:04.395Z,61.20
2022-12-12T03:11:06.868Z,61.60
2022-12-12T03:14:15.072Z,63.58
2022-12-12T03:17:20.603Z,61.77
2022-12-12T03:20:22.899Z,62.35
2022-12-12T03:23:19.098Z,61.42
2022-12-12T03:26:27.622Z,62.93
2022-12-12T03:29:24.202Z,60.73
2022-12-12T03:32:14.431Z,70.35
2022-12-12T03:35:04.912Z,63.65
2022-12-12T03:37:58.101Z,72.70
2022-12-12T03:40:58.242Z,69.35
2022-12-12T03:43:48.744Z,71.70
2022-12-12T03:46:44.904Z,65.12
2022-12-12T03:49:38.177Z,65.17
2022-12-12T03:52:34.836Z,69.45
2022-12-12T03:55:31.418Z,69.90
2022-12-12T03:58:27.545Z,63.10
2022-12-12T04:01:16.673Z,66.77
2022-12-12T04:04:22.314Z,68.22
2022-12-12T04:07:21.393Z,60.92
2022-12-12T04:10:27.975Z,66.17
2022-12-12T04:13:38.177Z,52.17
2022-12-12T04:16:28.539Z,68.67
2022-12-12T04:19:23.437Z,60.40
2022-12-12T04:22:30.409Z,66.10
2022-12-12T04:25:26.380Z,63.75
2022-12-12T04:28:13.738Z,72.30
2022-12-12T04:31:04.067Z,61.23
2022-12-12T04:33:53.595Z,61.58
2022-12-12T04:36:41.878Z,66.55
2022-12-12T04:39:31.230Z,70.25
2022-12-12T04:42:22.213Z,62.80
2022-12-12T04:45:13.034Z,63.02
2022-12-12T04:48:02.710Z,61.35
2022-12-12T04:50:53.528Z,60.67
2022-12-12T04:53:44.005Z,57.98
2022-12-12T04:56:33.728Z,69.35
2022-12-12T04:59:21.350Z,98.95
2022-12-12T05:02:26.266Z,85.15
2022-12-12T05:05:22.954Z,91.70
2022-12-12T05:08:19.481Z,71.15
2022-12-12T05:11:08.098Z,62.38
2022-12-12T05:13:55.589Z,62.05
2022-12-12T05:16:45.840Z,63.48
2022-12-12T05:19:33.210Z,63.10
2022-12-12T05:22:20.517Z,68.33
2022-12-12T05:25:08.580Z,64.72
2022-12-12T05:27:55.737Z,60.92
2022-12-12T05:30:43.187Z,66.97
2022-12-12T05:33:30.697Z,63.35
2022-12-12T05:36:18.928Z,69.82
2022-12-12T05:39:06.370Z,65.45
2022-12-12T05:41:53.670Z,71.85
2022-12-12T05:44:40.940Z,65.78
2022-12-12T05:47:29.950Z,68.78
2022-12-12T05:50:18.779Z,68.02
2022-12-12T05:53:07.411Z,66.05
2022-12-12T05:55:54.871Z,66.22
2022-12-12T05:58:42.885Z,64.72
2022-12-12T06:01:30.302Z,67.35
2022-12-12T06:04:17.932Z,70.03
2022-12-12T06:07:05.098Z,68.97
2022-12-12T06:09:52.851Z,61.33
2022-12-12T06:12:40.098Z,75.32
2022-12-12T06:15:27.460Z,78.78
2022-12-12T06:18:15.092Z,77.08
2022-12-12T06:21:06.654Z,77.47
2022-12-12T06:23:54.049Z,80.67
2022-12-12T06:26:41.394Z,75.35
2022-12-12T06:29:28.924Z,73.10
2022-12-12T06:32:16.378Z,81.65
2022-12-12T06:35:03.786Z,74.42
2022-12-12T06:37:51.249Z,74.95
2022-12-12T06:40:41.023Z,68.42
2022-12-12T06:43:28.239Z,67.30
2022-12-12T06:46:18.651Z,74.82
2022-12-12T06:49:07.566Z,69.47
2022-12-12T06:51:54.723Z,78.80
2022-12-12T06:54:42.226Z,72.70
2022-12-12T06:57:29.492Z,70.52
2022-12-12T07:00:17.327Z,78.10
2022-12-12T07:03:04.619Z,74.80
2022-12-12T07:05:51.799Z,77.78
2022-12-12T07:08:39.587Z,89.87
2022-12-12T07:11:28.535Z,68.37
2022-12-12T07:14:15.805Z,77.12
2022-12-12T07:17:03.018Z,76.28
2022-12-12T07:19:50.290Z,76.02
2022-12-12T07:22:37.768Z,75.85
2022-12-12T07:25:25.145Z,81.40
2022-12-12T07:28:14.321Z,70.60
2022-12-12T07:31:03.371Z,77.10
2022-12-12T07:33:51.942Z,79.77
2022-12-12T07:36:39.209Z,71.30
2022-12-12T07:39:26.527Z,73.10
2022-12-12T07:42:13.817Z,83.70
2022-12-12T07:45:01.273Z,67.60
2022-12-12T07:47:48.827Z,68.30
2022-12-12T07:50:36.069Z,73.28
2022-12-12T07:53:23.315Z,68.25
2022-12-12T07:56:12.993Z,66.07
2022-12-12T07:59:00.575Z,64.65
2022-12-12T08:01:48.018Z,63.10
2022-12-12T08:04:35.352Z,74.25
2022-12-12T08:07:22.925Z,73.05
2022-12-12T08:10:10.636Z,70.72
2022-12-12T08:12:58.114Z,72.50
2022-12-12T08:15:45.418Z,68.47
2022-12-12T08:18:32.751Z,71.47
2022-12-12T08:21:25.241Z,67.25
2022-12-12T08:24:12.923Z,73.40
2022-12-12T08:27:00.503Z,71.42
2022-12-12T08:29:47.875Z,75.95
2022-12-12T08:32:35.451Z,77.62
2022-12-12T08:35:25.459Z,72.60
2022-12-12T08:38:14.887Z,77.10
2022-12-12T08:41:03.589Z,74.47
2022-12-12T08:43:51.724Z,78.35
2022-12-12T08:46:39.906Z,89.35
2022-12-12T08:49:27.084Z,71.92
2022-12-12T08:52:14.307Z,72.45
2022-12-12T08:55:01.799Z,71.62
2022-12-12T08:57:49.187Z,80.22
2022-12-12T09:00:37.071Z,74.05
2022-12-12T09:03:29.227Z,81.08
2022-12-12T09:06:14.136Z,93.07
2022-12-12T09:09:01.417Z,97.27
2022-12-12T09:11:50.670Z,105.95
2022-12-12T09:14:38.166Z,100.87
2022-12-12T09:17:26.566Z,108.60
2022-12-12T09:20:14.597Z,106.43
2022-12-12T09:23:02.084Z,106.52
2022-12-12T09:25:50.553Z,103.32
2022-12-12T09:28:39.292Z,103.97
2022-12-12T09:31:26.744Z,109.85
2022-12-12T09:34:14.276Z,114.03
2022-12-12T09:37:02.516Z,106.83
2022-12-12T09:39:54.385Z,89.00
2022-12-12T09:42:45.058Z,96.78
2022-12-12T09:45:35.589Z,99.92
2022-12-12T09:48:38.502Z,107.67
2022-12-12T09:51:25.749Z,89.25
2022-12-12T09:54:16.179Z,89.32
2022-12-12T09:57:25.979Z,88.10
2022-12-12T10:00:15.769Z,87.30
2022-12-12T10:03:11.999Z,87.45
2022-12-12T10:06:28.653Z,89.15
2022-12-12T10:09:09.000Z,91.63
2022-12-12T10:12:00.036Z,81.22
2022-12-12T10:15:01.903Z,80.30
2022-12-12T10:17:50.561Z,83.22
2022-12-12T10:20:43.886Z,82.70
2022-12-12T10:23:53.554Z,83.82
2022-12-12T10:26:43.096Z,77.05
2022-12-12T10:29:30.432Z,78.62
2022-12-12T10:32:36.156Z,83.75
2022-12-12T10:35:49.527Z,84.05
2022-12-12T10:38:54.828Z,79.72
2022-12-12T10:42:00.635Z,79.65
2022-12-12T10:45:12.444Z,76.55
2022-12-12T10:48:00.087Z,70.17
2022-12-12T10:50:50.565Z,73.10
2022-12-12T10:53:38.995Z,70.30
2022-12-12T10:56:32.009Z,78.85
2022-12-12T10:59:40.408Z,72.35
2022-12-12T11:02:38.243Z,73.92
2022-12-12T11:05:30.971Z,69.10
2022-12-12T11:08:21.965Z,68.60
2022-12-12T11:11:12.515Z,71.12
2022-12-12T11:14:02.539Z,62.73
2022-12-12T11:16:49.708Z,60.80
2022-12-12T11:19:40.917Z,68.95
2022-12-12T11:22:30.352Z,64.82
2022-12-12T11:25:26.861Z,54.93
2022-12-12T11:28:17.466Z,62.83
2022-12-12T11:31:07.559Z,61.40
2022-12-12T11:33:58.333Z,71.95
2022-12-12T11:36:45.651Z,69.60
2022-12-12T11:39:35.863Z,72.40
2022-12-12T11:42:29.138Z,67.42
2022-12-12T11:45:19.679Z,74.05
2022-12-12T11:48:15.795Z,77.03
2022-12-12T11:51:03.712Z,69.47
2022-12-12T11:53:50.977Z,71.62
2022-12-12T11:56:57.601Z,69.25
2022-12-12T11:59:56.691Z,72.15
2022-12-12T12:03:09.632Z,65.47
2022-12-12T12:06:08.591Z,68.52
2022-12-12T12:09:04.943Z,69.95
2022-12-12T12:12:17.401Z,67.03
2022-12-12T12:15:22.960Z,70.57
2022-12-12T12:18:26.585Z,71.90
2022-12-12T12:21:19.499Z,77.70
2022-12-12T12:24:09.991Z,79.07
2022-12-12T12:27:17.062Z,75.47
2022-12-12T12:30:25.123Z,76.25
2022-12-12T12:33:27.632Z,77.58
2022-12-12T12:36:23.529Z,71.57
2022-12-12T12:39:20.104Z,76.00
2022-12-12T12:42:13.506Z,80.50
2022-12-12T12:45:15.616Z,75.67
2022-12-12T12:48:21.299Z,80.40
2022-12-12T12:51:29.703Z,77.80
2022-12-12T12:54:25.900Z,79.82
2022-12-12T12:57:22.134Z,75.05
2022-12-12T13:00:24.930Z,74.12
2022-12-12T13:03:21.250Z,75.65
2022-12-12T13:06:11.508Z,84.77
2022-12-12T13:09:14.248Z,88.05
2022-12-12T13:12:19.629Z,89.05
2022-12-12T13:15:09.971Z,80.75
2022-12-12T13:18:04.462Z,78.55
2022-12-12T13:21:00.388Z,76.17
2022-12-12T13:23:53.662Z,71.30
2022-12-12T13:27:08.656Z,71.92
2022-12-12T13:30:01.666Z,78.50
2022-12-12T13:32:58.135Z,78.70
2022-12-12T13:35:51.673Z,73.78
2022-12-12T13:38:40.285Z,75.72
2022-12-12T13:41:28.565Z,69.67
2022-12-12T13:44:27.804Z,80.15
2022-12-12T13:47:27.035Z,68.87
2022-12-12T13:50:22.858Z,68.85
2022-12-12T13:53:13.596Z,65.28
2022-12-12T13:56:20.607Z,70.75
2022-12-12T13:59:29.266Z,66.50
2022-12-12T14:02:28.835Z,64.37
2022-12-12T14:05:28.219Z,67.40
2022-12-12T14:08:18.533Z,63.17
2022-12-12T14:11:11.920Z,63.65
2022-12-12T14:14:10.359Z,62.88
2022-12-12T14:16:58.074Z,62.93
2022-12-12T14:19:45.788Z,61.90
2022-12-12T14:22:42.095Z,59.88
2022-12-12T14:25:40.928Z,60.90
2022-12-12T14:28:31.598Z,57.35
2022-12-12T14:31:18.941Z,49.42
2022-12-12T14:34:09.512Z,57.33
2022-12-12T14:37:02.785Z,58.08
2022-12-12T14:39:59.082Z,52.88
2022-12-12T14:43:19.939Z,38.48
2022-12-12T14:45:55.874Z,52.13
2022-12-12T14:48:43.987Z,48.60
2022-12-12T14:51:36.958Z,53.25
2022-12-12T14:54:25.714Z,53.25
2022-12-12T14:57:16.434Z,50.17
2022-12-12T15:00:04.843Z,49.15
2022-12-12T15:02:53.998Z,49.25
2022-12-12T15:05:41.516Z,53.85
2022-12-12T15:08:28.806Z,56.60
2022-12-12T15:11:17.542Z,50.85
2022-12-12T15:14:05.724Z,47.90
2022-12-12T15:17:05.287Z,54.98
2022-12-12T15:20:11.264Z,51.95
2022-12-12T15:23:04.171Z,52.40
2022-12-12T15:25:56.079Z,59.00
2022-12-12T15:28:46.614Z,57.90
2022-12-12T15:31:33.956Z,56.70
2022-12-12T15:34:36.386Z,61.90
2022-12-12T15:37:26.946Z,55.38
2022-12-12T15:40:17.674Z,52.20
2022-12-12T15:43:14.553Z,62.93
2022-12-12T15:46:09.282Z,61.77
2022-12-12T15:48:56.542Z,61.08
2022-12-12T15:51:43.988Z,63.38
2022-12-12T15:54:31.380Z,59.40
2022-12-12T15:57:25.277Z,64.27
2022-12-12T16:00:32.052Z,65.28
2022-12-12T16:03:22.527Z,63.92
2022-12-12T16:06:18.433Z,66.57
2022-12-12T16:09:24.266Z,44.53
2022-12-12T16:12:11.662Z,62.93
2022-12-12T16:15:02.092Z,65.55
2022-12-12T16:18:01.162Z,67.62
2022-12-12T16:20:57.040Z,65.90
2022-12-12T16:23:44.433Z,67.50
2022-12-12T16:26:31.993Z,70.87
2022-12-12T16:29:19.218Z,67.78
2022-12-12T16:32:07.011Z,74.42
2022-12-12T16:34:54.901Z,76.02
2022-12-12T16:37:42.393Z,72.30
2022-12-12T16:40:29.395Z,70.40
2022-12-12T16:43:20.168Z,76.62
2022-12-12T16:46:09.409Z,72.85
2022-12-12T16:48:58.250Z,71.47
2022-12-12T16:51:45.293Z,72.12
2022-12-12T16:54:32.777Z,70.85
2022-12-12T16:57:20.056Z,73.80
2022-12-12T17:00:08.322Z,75.62
2022-12-12T17:02:55.673Z,81.63
2022-12-12T17:05:44.025Z,87.95
2022-12-12T17:08:31.414Z,100.58
2022-12-12T17:11:19.224Z,79.30
2022-12-12T17:14:06.674Z,78.57
2022-12-12T17:16:54.732Z,83.05
2022-12-12T17:19:42.409Z,81.85
2022-12-12T17:22:30.296Z,83.07
2022-12-12T17:25:17.740Z,81.30
2022-12-12T17:28:06.984Z,82.67
2022-12-12T17:30:54.709Z,85.75
2022-12-12T17:33:49.849Z,75.42
2022-12-12T17:36:31.168Z,71.42
2022-12-12T17:39:19.274Z,76.17
2022-12-12T17:42:06.638Z,84.22
2022-12-12T17:44:54.398Z,78.92
2022-12-12T17:47:41.646Z,78.17
2022-12-12T17:50:30.573Z,80.57
2022-12-12T17:53:17.788Z,81.87
2022-12-12T17:56:20.753Z,82.12
2022-12-12T17:59:09.069Z,103.95
2022-12-12T18:01:56.735Z,106.90
2022-12-12T18:04:44.302Z,113.90
2022-12-12T18:07:31.908Z,114.25
2022-12-12T18:10:19.116Z,147.68
2022-12-12T18:13:06.587Z,127.20
2022-12-12T18:15:58.392Z,112.28
2022-12-12T18:18:45.941Z,92.62
2022-12-12T18:24:24.840Z,84.55
2022-12-12T18:27:12.490Z,87.72
2022-12-12T18:30:00.217Z,88.15
2022-12-12T18:32:47.647Z,83.60
2022-12-12T18:35:34.787Z,85.97
2022-12-12T18:38:22.249Z,89.70
2022-12-12T18:41:10.465Z,91.15
2022-12-12T18:43:58.020Z,82.30
2022-12-12T18:46:45.823Z,79.47
2022-12-12T18:49:33.311Z,77.25
2022-12-12T18:52:20.805Z,88.52
2022-12-12T18:55:09.118Z,89.58
2022-12-12T18:57:56.898Z,96.80
2022-12-12T19:00:44.549Z,100.10
2022-12-12T19:03:31.689Z,91.22
2022-12-12T19:06:24.000Z,101.05
2022-12-12T19:09:17.113Z,87.20
2022-12-12T19:12:05.727Z,94.65
2022-12-12T19:15:15.907Z,87.95
2022-12-12T19:17:42.893Z,96.82
2022-12-12T19:20:30.601Z,95.03
2022-12-12T19:23:18.068Z,97.97
2022-12-12T19:26:14.307Z,92.72
2022-12-12T19:29:04.507Z,104.67
2022-12-12T19:31:58.368Z,93.12
2022-12-12T19:34:42.244Z,95.90
2022-12-12T19:37:29.759Z,94.47
2022-12-12T19:40:17.726Z,97.42
2022-12-12T19:43:05.599Z,96.10
2022-12-12T19:45:56.044Z,92.53
2022-12-12T19:48:44.260Z,105.58
2022-12-12T19:51:34.555Z,88.67
2022-12-12T19:54:22.528Z,92.27
2022-12-12T19:57:09.891Z,89.70
2022-12-12T19:59:57.227Z,87.67
2022-12-12T20:02:44.583Z,71.65
2022-12-12T20:05:31.703Z,86.78
2022-12-12T20:08:18.968Z,80.62
2022-12-12T20:11:11.911Z,80.57
2022-12-12T20:14:00.904Z,87.05
2022-12-12T20:16:49.226Z,96.15
2022-12-12T20:19:36.558Z,77.05
2022-12-12T20:22:31.673Z,81.00
2022-12-12T20:25:19.501Z,86.22
2022-12-12T20:28:06.707Z,87.08
2022-12-12T20:31:11.873Z,88.05
2022-12-12T20:34:00.288Z,83.27
2022-12-12T20:36:48.044Z,95.12
2022-12-12T20:39:40.721Z,103.20
2022-12-12T20:42:33.370Z,89.00
2022-12-12T20:45:26.143Z,71.72
2022-12-12T20:48:15.189Z,85.00
2022-12-12T20:51:03.783Z,76.22
2022-12-12T20:53:55.128Z,84.80
2022-12-12T20:56:49.285Z,78.90
2022-12-12T20:59:43.300Z,83.37
2022-12-12T21:02:33.446Z,80.90
2022-12-12T21:05:21.057Z,77.78
2022-12-12T21:08:08.721Z,93.07
2022-12-12T21:10:56.172Z,87.15
2022-12-12T21:13:43.894Z,85.45
2022-12-12T21:16:34.602Z,87.02
2022-12-12T21:19:24.405Z,77.82
2022-12-12T21:22:11.849Z,79.32
2022-12-12T21:24:59.228Z,71.42
2022-12-12T21:27:46.694Z,73.30
2022-12-12T21:30:33.841Z,81.92
2022-12-12T21:33:22.807Z,73.15
2022-12-12T21:36:12.223Z,76.35
2022-12-12T21:39:01.058Z,79.92
2022-12-12T21:41:48.395Z,75.25
2022-12-12T21:44:40.018Z,71.77
2022-12-12T21:47:25.377Z,75.70
2022-12-12T21:50:12.723Z,76.10
2022-12-12T21:53:18.254Z,82.00
2022-12-12T21:56:07.229Z,61.85
2022-12-12T21:58:54.541Z,70.75
2022-12-12T22:01:42.455Z,71.28
2022-12-12T22:04:29.685Z,63.15
2022-12-12T22:07:18.994Z,78.78
2022-12-12T22:10:10.981Z,98.20
2022-12-12T22:12:57.567Z,81.80
2022-12-12T22:15:44.848Z,82.27
2022-12-12T22:18:32.093Z,88.35
2022-12-12T22:21:23.794Z,89.42
2022-12-12T22:24:11.292Z,81.53
2022-12-12T22:26:59.228Z,86.97
2022-12-12T22:29:46.765Z,89.45
2022-12-12T22:32:34.000Z,78.45
2022-12-12T22:35:27.529Z,77.27
2022-12-12T22:38:14.950Z,82.00
2022-12-12T22:41:02.607Z,82.33
2022-12-12T22:43:54.683Z,98.20
2022-12-12T22:46:44.070Z,86.50
2022-12-12T22:49:31.124Z,73.33
2022-12-12T22:52:19.414Z,65.03
2022-12-12T22:55:07.113Z,75.72
2022-12-12T22:57:55.187Z,73.80
2022-12-12T23:00:42.482Z,87.60
2022-12-12T23:03:31.326Z,82.82
2022-12-12T23:06:28.105Z,81.37
2022-12-12T23:09:18.452Z,70.37
2022-12-12T23:12:05.465Z,83.95
2022-12-12T23:14:54.706Z,80.07
2022-12-12T23:17:41.901Z,77.30
2022-12-12T23:20:29.494Z,79.90
2022-12-12T23:23:17.042Z,83.12
2022-12-12T23:26:08.516Z,84.58
2022-12-12T23:28:56.240Z,79.45
2022-12-12T23:31:43.657Z,84.60
2022-12-12T23:34:31.409Z,85.55
2022-12-12T23:37:18.845Z,71.65
2022-12-12T23:40:07.226Z,85.10
2022-12-12T23:42:54.765Z,81.12
2022-12-12T23:45:42.362Z,83.25
2022-12-12T23:48:31.108Z,84.55
2022-12-12T23:51:18.698Z,77.05
2022-12-12T23:54:08.660Z,90.92
2022-12-12T23:56:56.012Z,73.80
2022-12-12T23:59:43.938Z,78.05
